createdAt,value
2023-01-06T00:01:11.609Z,10.11
2023-01-06T00:03:39.132Z,9.91
2023-01-06T00:06:08.435Z,9.94
2023-01-06T00:08:36.248Z,9.90
2023-01-06T00:11:08.260Z,9.86
2023-01-06T00:13:35.881Z,9.89
2023-01-06T00:16:04.828Z,10.00
2023-01-06T00:18:32.563Z,10.15
2023-01-06T00:21:00.255Z,10.05
2023-01-06T00:23:27.852Z,9.82
2023-01-06T00:25:55.236Z,9.83
2023-01-06T00:28:22.739Z,9.95
2023-01-06T00:30:50.533Z,9.94
2023-01-06T00:33:17.941Z,10.02
2023-01-06T00:35:45.957Z,10.16
2023-01-06T00:38:13.274Z,10.14
2023-01-06T00:40:40.560Z,10.19
2023-01-06T00:43:08.800Z,9.98
2023-01-06T00:45:36.137Z,9.96
2023-01-06T00:48:03.741Z,9.96
2023-01-06T00:50:31.154Z,9.76
2023-01-06T00:52:58.862Z,9.86
2023-01-06T00:55:26.875Z,9.73
2023-01-06T00:57:54.629Z,9.87
2023-01-06T01:00:22.418Z,9.92
2023-01-06T01:02:49.774Z,9.96
2023-01-06T01:05:17.177Z,9.99
2023-01-06T01:07:44.784Z,9.90
2023-01-06T01:10:12.819Z,9.86
2023-01-06T01:12:41.125Z,9.93
2023-01-06T01:15:08.682Z,9.74
2023-01-06T01:17:36.363Z,9.67
2023-01-06T01:20:03.972Z,9.76
2023-01-06T01:22:31.384Z,9.70
2023-01-06T01:24:58.727Z,9.87
2023-01-06T01:27:26.449Z,9.86
2023-01-06T01:29:53.819Z,9.90
2023-01-06T01:32:22.073Z,9.72
2023-01-06T01:34:49.328Z,9.69
2023-01-06T01:37:16.904Z,9.88
2023-01-06T01:39:44.210Z,10.00
2023-01-06T01:42:15.586Z,9.84
2023-01-06T01:44:55.513Z,9.65
2023-01-06T01:47:32.434Z,9.64
2023-01-06T01:50:03.570Z,9.83
2023-01-06T01:52:32.260Z,9.93
2023-01-06T01:55:00.782Z,9.98
2023-01-06T01:57:35.363Z,9.95
2023-01-06T02:00:05.933Z,9.90
2023-01-06T02:02:41.813Z,9.94
2023-01-06T02:05:11.486Z,10.13
2023-01-06T02:07:40.378Z,9.91
2023-01-06T02:10:13.001Z,9.87
2023-01-06T02:12:41.309Z,10.04
2023-01-06T02:15:15.393Z,9.92
2023-01-06T02:17:45.730Z,9.94
2023-01-06T02:20:13.488Z,10.03
2023-01-06T02:23:12.787Z,9.85
2023-01-06T02:25:44.086Z,9.92
2023-01-06T02:28:35.406Z,10.06
2023-01-06T02:31:21.695Z,10.19
2023-01-06T02:34:15.321Z,10.06
2023-01-06T02:37:02.269Z,10.05
2023-01-06T02:39:49.513Z,9.88
2023-01-06T02:42:32.528Z,9.86
2023-01-06T02:44:59.862Z,9.97
2023-01-06T02:47:35.399Z,10.04
2023-01-06T02:50:21.352Z,10.15
2023-01-06T02:52:58.379Z,10.11
2023-01-06T02:55:28.886Z,9.97
2023-01-06T02:57:56.847Z,10.03
2023-01-06T03:00:32.730Z,10.05
2023-01-06T03:03:04.432Z,9.91
2023-01-06T03:05:34.568Z,10.00
2023-01-06T03:08:05.044Z,10.01
2023-01-06T03:10:33.517Z,10.07
2023-01-06T03:13:04.708Z,9.92
2023-01-06T03:15:33.235Z,9.98
2023-01-06T03:18:00.926Z,10.01
2023-01-06T03:20:28.656Z,9.96
2023-01-06T03:22:56.014Z,9.98
2023-01-06T03:25:23.493Z,9.89
2023-01-06T03:27:51.686Z,9.71
2023-01-06T03:30:27.599Z,9.80
2023-01-06T03:33:07.703Z,9.99
2023-01-06T03:36:00.133Z,9.61
2023-01-06T03:38:47.112Z,9.65
2023-01-06T03:41:18.384Z,9.86
2023-01-06T03:43:51.978Z,9.94
2023-01-06T03:46:23.570Z,10.00
2023-01-06T03:49:06.557Z,9.93
2023-01-06T03:51:41.690Z,9.74
2023-01-06T03:54:15.911Z,9.75
2023-01-06T03:56:59.214Z,9.88
2023-01-06T03:59:29.607Z,9.74
2023-01-06T04:01:58.991Z,9.59
2023-01-06T04:04:26.557Z,9.47
2023-01-06T04:06:54.108Z,9.57
2023-01-06T04:09:21.903Z,9.61
2023-01-06T04:12:08.404Z,9.75
2023-01-06T04:14:38.639Z,9.78
2023-01-06T04:17:07.144Z,9.88
2023-01-06T04:19:35.315Z,9.72
2023-01-06T04:22:03.522Z,9.71
2023-01-06T04:24:32.288Z,9.70
2023-01-06T04:26:59.639Z,9.71
2023-01-06T04:29:27.587Z,9.86
2023-01-06T04:31:56.626Z,9.84
2023-01-06T04:34:24.282Z,9.74
2023-01-06T04:36:51.575Z,9.90
2023-01-06T04:39:19.027Z,9.97
2023-01-06T04:41:46.351Z,10.00
2023-01-06T04:44:13.740Z,9.61
2023-01-06T04:46:41.487Z,9.69
2023-01-06T04:49:08.831Z,9.76
2023-01-06T04:51:36.145Z,9.84
2023-01-06T04:54:03.696Z,9.81
2023-01-06T04:56:31.151Z,9.85
2023-01-06T04:58:58.847Z,9.84
2023-01-06T05:01:27.491Z,10.01
2023-01-06T05:03:55.129Z,9.97
2023-01-06T05:06:22.648Z,10.14
2023-01-06T05:08:50.524Z,10.07
2023-01-06T05:11:19.007Z,10.10
2023-01-06T05:13:46.744Z,9.73
2023-01-06T05:16:18.920Z,9.88
2023-01-06T05:18:46.598Z,9.90
2023-01-06T05:21:14.170Z,9.91
2023-01-06T05:23:41.552Z,9.96
2023-01-06T05:26:10.445Z,9.99
2023-01-06T05:28:37.755Z,9.76
2023-01-06T05:31:05.643Z,9.83
2023-01-06T05:33:33.438Z,9.97
2023-01-06T05:36:01.897Z,10.14
2023-01-06T05:38:29.768Z,9.89
2023-01-06T05:40:57.588Z,10.01
2023-01-06T05:43:26.052Z,9.90
2023-01-06T05:45:54.414Z,10.05
2023-01-06T05:48:26.159Z,10.08
2023-01-06T05:50:53.646Z,10.07
2023-01-06T05:53:21.123Z,10.19
2023-01-06T05:55:48.381Z,10.13
2023-01-06T05:58:15.636Z,10.17
2023-01-06T06:00:43.430Z,10.08
2023-01-06T06:03:11.739Z,10.02
2023-01-06T06:05:39.043Z,9.96
2023-01-06T06:08:07.294Z,10.07
2023-01-06T06:10:35.896Z,10.01
2023-01-06T06:13:03.269Z,10.05
2023-01-06T06:15:30.907Z,10.04
2023-01-06T06:17:58.235Z,10.03
2023-01-06T06:20:25.765Z,10.09
2023-01-06T06:22:53.146Z,10.06
2023-01-06T06:25:20.466Z,10.05
2023-01-06T06:27:47.869Z,10.20
2023-01-06T06:30:17.124Z,10.19
2023-01-06T06:32:44.468Z,10.19
2023-01-06T06:35:11.804Z,10.06
2023-01-06T06:37:39.123Z,10.20
2023-01-06T06:40:06.721Z,10.05
2023-01-06T06:42:34.512Z,10.26
2023-01-06T06:45:02.427Z,10.29
2023-01-06T06:47:30.166Z,10.14
2023-01-06T06:49:57.940Z,10.15
2023-01-06T06:52:25.255Z,10.14
2023-01-06T06:54:52.736Z,10.13
2023-01-06T06:57:20.039Z,10.14
2023-01-06T06:59:47.398Z,10.09
2023-01-06T07:02:15.212Z,10.27
2023-01-06T07:04:42.681Z,10.09
2023-01-06T07:07:10.545Z,10.26
2023-01-06T07:09:37.881Z,10.16
2023-01-06T07:12:05.526Z,10.04
2023-01-06T07:14:32.821Z,10.01
2023-01-06T07:17:02.274Z,10.16
2023-01-06T07:19:29.839Z,10.27
2023-01-06T07:21:57.304Z,10.20
2023-01-06T07:24:24.673Z,10.13
2023-01-06T07:26:52.408Z,10.20
2023-01-06T07:29:20.002Z,10.19
2023-01-06T07:31:47.489Z,10.16
2023-01-06T07:34:14.813Z,10.32
2023-01-06T07:36:42.234Z,10.42
2023-01-06T07:39:09.850Z,10.54
2023-01-06T07:41:37.219Z,10.83
2023-01-06T07:44:08.506Z,10.65
2023-01-06T07:46:35.903Z,10.62
2023-01-06T07:49:03.252Z,10.82
2023-01-06T07:51:31.484Z,10.94
2023-01-06T07:53:59.290Z,11.08
2023-01-06T07:56:26.760Z,11.10
2023-01-06T07:58:54.804Z,11.04
2023-01-06T08:01:22.840Z,11.03
2023-01-06T08:03:50.252Z,10.92
2023-01-06T08:06:17.787Z,10.97
2023-01-06T08:08:45.195Z,11.02
2023-01-06T08:11:13.478Z,10.93
2023-01-06T08:13:41.078Z,10.79
2023-01-06T08:16:09.840Z,10.83
2023-01-06T08:18:38.201Z,10.71
2023-01-06T08:21:09.719Z,10.87
2023-01-06T08:23:39.089Z,10.88
2023-01-06T08:26:13.527Z,10.96
2023-01-06T08:28:42.120Z,10.83
2023-01-06T08:31:11.412Z,10.94
2023-01-06T08:33:39.255Z,11.09
2023-01-06T08:36:08.015Z,11.09
2023-01-06T08:38:36.170Z,11.19
2023-01-06T08:41:04.359Z,11.20
2023-01-06T08:43:32.515Z,11.10
2023-01-06T08:46:01.231Z,11.13
2023-01-06T08:48:29.341Z,11.26
2023-01-06T08:50:58.230Z,11.55
2023-01-06T08:53:25.520Z,11.61
2023-01-06T08:55:52.834Z,11.40
2023-01-06T08:58:20.664Z,11.56
2023-01-06T09:00:48.521Z,11.75
2023-01-06T09:03:16.257Z,11.83
2023-01-06T09:05:43.944Z,11.98
2023-01-06T09:08:11.243Z,11.65
2023-01-06T09:10:39.001Z,11.59
2023-01-06T09:13:06.825Z,11.59
2023-01-06T09:15:34.279Z,11.62
2023-01-06T09:18:01.749Z,11.63
2023-01-06T09:20:29.639Z,11.68
2023-01-06T09:22:57.053Z,11.38
2023-01-06T09:25:24.344Z,11.60
2023-01-06T09:27:51.621Z,11.71
2023-01-06T09:30:19.054Z,11.64
2023-01-06T09:32:46.772Z,11.67
2023-01-06T09:35:15.153Z,11.74
2023-01-06T09:37:42.996Z,11.89
2023-01-06T09:40:16.019Z,11.78
2023-01-06T09:43:06.491Z,11.82
2023-01-06T09:45:37.792Z,11.79
2023-01-06T09:48:09.734Z,11.85
2023-01-06T09:50:40.845Z,11.79
2023-01-06T09:53:28.475Z,11.83
2023-01-06T09:55:58.173Z,11.94
2023-01-06T09:58:29.061Z,12.12
2023-01-06T10:00:58.049Z,11.99
2023-01-06T10:03:26.688Z,12.15
2023-01-06T10:06:06.945Z,12.03
2023-01-06T10:08:37.055Z,12.28
2023-01-06T10:11:15.957Z,12.19
2023-01-06T10:14:01.272Z,12.26
2023-01-06T10:16:28.630Z,12.11
2023-01-06T10:19:02.639Z,12.01
2023-01-06T10:21:34.848Z,12.10
2023-01-06T10:24:27.278Z,12.27
2023-01-06T10:27:01.807Z,12.42
2023-01-06T10:29:32.509Z,12.41
2023-01-06T10:32:01.427Z,12.50
2023-01-06T10:34:29.356Z,12.44
2023-01-06T10:37:12.556Z,12.63
2023-01-06T10:39:41.323Z,12.46
2023-01-06T10:42:56.167Z,12.42
2023-01-06T10:45:31.863Z,12.78
2023-01-06T10:48:00.623Z,12.95
2023-01-06T10:50:35.345Z,13.12
2023-01-06T10:53:03.477Z,13.05
2023-01-06T10:55:39.581Z,13.00
2023-01-06T10:58:25.699Z,12.77
2023-01-06T11:01:00.237Z,12.47
2023-01-06T11:03:35.579Z,12.47
2023-01-06T11:06:15.696Z,12.47
2023-01-06T11:08:43.534Z,12.60
2023-01-06T11:11:33.921Z,12.57
2023-01-06T11:14:05.655Z,12.76
2023-01-06T11:16:34.131Z,12.93
2023-01-06T11:19:03.662Z,12.89
2023-01-06T11:21:37.756Z,12.98
2023-01-06T11:24:34.930Z,12.70
2023-01-06T11:27:15.182Z,12.65
2023-01-06T11:29:44.362Z,12.92
2023-01-06T11:32:15.654Z,13.05
2023-01-06T11:34:51.790Z,12.63
2023-01-06T11:37:34.559Z,12.82
2023-01-06T11:40:11.339Z,13.22
2023-01-06T11:45:30.762Z,12.94
2023-01-06T11:47:58.867Z,12.90
2023-01-06T11:50:27.496Z,12.95
2023-01-06T11:53:04.484Z,12.64
2023-01-06T11:55:31.951Z,12.93
2023-01-06T11:58:06.179Z,13.05
2023-01-06T12:00:36.816Z,13.18
2023-01-06T12:03:07.652Z,13.21
2023-01-06T12:05:39.293Z,12.93
2023-01-06T12:08:19.981Z,12.62
2023-01-06T12:10:51.558Z,12.86
2023-01-06T12:13:18.885Z,13.05
2023-01-06T12:15:51.610Z,13.11
2023-01-06T12:18:23.882Z,13.11
2023-01-06T12:20:52.036Z,13.25
2023-01-06T12:23:26.210Z,13.11
2023-01-06T12:25:56.508Z,12.61
2023-01-06T12:28:24.945Z,12.39
2023-01-06T12:30:57.246Z,12.84
2023-01-06T12:33:24.651Z,13.05
2023-01-06T12:35:54.445Z,12.57
2023-01-06T12:38:22.865Z,12.16
2023-01-06T12:40:55.520Z,12.56
2023-01-06T12:43:24.810Z,12.59
2023-01-06T12:45:58.090Z,11.84
2023-01-06T12:48:35.295Z,11.78
2023-01-06T12:51:08.731Z,11.78
2023-01-06T12:53:39.256Z,11.95
2023-01-06T12:56:17.263Z,12.14
2023-01-06T12:58:44.694Z,12.07
2023-01-06T13:01:19.556Z,12.20
2023-01-06T13:03:59.308Z,12.09
2023-01-06T13:06:43.896Z,11.99
2023-01-06T13:09:30.632Z,12.20
2023-01-06T13:12:10.784Z,12.24
2023-01-06T13:14:40.936Z,12.22
2023-01-06T13:17:12.169Z,12.09
2023-01-06T13:19:53.985Z,11.80
2023-01-06T13:22:26.644Z,11.56
2023-01-06T13:25:24.143Z,11.89
2023-01-06T13:28:06.304Z,12.10
2023-01-06T13:30:34.318Z,12.14
2023-01-06T13:33:10.919Z,12.05
2023-01-06T13:35:57.968Z,12.14
2023-01-06T13:38:31.192Z,12.17
2023-01-06T13:41:00.777Z,12.07
2023-01-06T13:43:33.494Z,11.96
2023-01-06T13:46:04.601Z,11.89
2023-01-06T13:48:33.422Z,11.65
2023-01-06T13:51:03.824Z,11.64
2023-01-06T13:53:37.240Z,11.59
2023-01-06T13:56:14.076Z,11.70
2023-01-06T13:58:42.215Z,11.83
2023-01-06T14:01:11.027Z,11.98
2023-01-06T14:03:39.820Z,11.84
2023-01-06T14:06:30.627Z,11.93
2023-01-06T14:08:59.476Z,11.82
2023-01-06T14:11:27.016Z,11.99
2023-01-06T14:13:56.294Z,12.03
2023-01-06T14:16:39.330Z,11.94
2023-01-06T14:19:16.282Z,11.99
2023-01-06T14:21:44.663Z,11.92
2023-01-06T14:24:20.960Z,12.00
2023-01-06T14:26:50.297Z,11.98
2023-01-06T14:29:37.125Z,11.96
2023-01-06T14:32:05.797Z,11.91
2023-01-06T14:34:34.558Z,11.81
2023-01-06T14:37:03.511Z,11.76
2023-01-06T14:39:33.746Z,11.78
2023-01-06T14:42:06.556Z,11.81
2023-01-06T14:44:40.889Z,11.87
2023-01-06T14:47:11.984Z,11.67
2023-01-06T14:49:46.983Z,11.48
2023-01-06T14:52:19.332Z,11.46
2023-01-06T14:54:48.832Z,11.48
2023-01-06T14:57:42.412Z,11.36
2023-01-06T15:00:16.212Z,11.26
2023-01-06T15:02:51.535Z,11.29
2023-01-06T15:05:24.251Z,11.39
2023-01-06T15:08:05.168Z,11.33
2023-01-06T15:10:35.546Z,10.97
2023-01-06T15:13:03.808Z,10.77
2023-01-06T15:15:33.064Z,11.02
2023-01-06T15:18:02.259Z,10.92
2023-01-06T15:20:39.305Z,10.99
2023-01-06T15:23:07.422Z,11.03
2023-01-06T15:25:37.720Z,11.15
2023-01-06T15:28:05.099Z,11.19
2023-01-06T15:30:35.980Z,11.25
2023-01-06T15:33:03.691Z,11.01
2023-01-06T15:35:32.886Z,11.10
2023-01-06T15:38:14.282Z,11.15
2023-01-06T15:40:41.761Z,11.21
2023-01-06T15:43:10.120Z,10.85
2023-01-06T15:45:37.494Z,11.01
2023-01-06T15:48:12.725Z,10.94
2023-01-06T15:50:40.903Z,11.02
2023-01-06T15:53:18.251Z,11.00
2023-01-06T15:55:52.963Z,11.11
2023-01-06T15:58:22.868Z,11.20
2023-01-06T16:00:52.727Z,11.15
2023-01-06T16:03:22.019Z,11.17
2023-01-06T16:05:53.520Z,11.14
2023-01-06T16:08:24.781Z,11.00
2023-01-06T16:11:40.187Z,10.92
2023-01-06T16:14:24.350Z,10.87
2023-01-06T16:16:51.863Z,11.04
2023-01-06T16:19:21.406Z,11.02
2023-01-06T16:21:51.770Z,10.95
2023-01-06T16:24:22.169Z,11.14
2023-01-06T16:26:53.848Z,11.13
2023-01-06T16:29:24.717Z,11.18
2023-01-06T16:31:52.580Z,11.09
2023-01-06T16:34:23.660Z,10.91
2023-01-06T16:36:52.496Z,10.89
2023-01-06T16:39:20.513Z,10.79
2023-01-06T16:42:00.354Z,10.51
2023-01-06T16:44:29.743Z,10.46
2023-01-06T16:46:57.818Z,10.50
2023-01-06T16:49:25.505Z,10.51
2023-01-06T16:51:54.713Z,10.53
2023-01-06T16:54:23.631Z,10.65
2023-01-06T16:56:52.372Z,10.72
2023-01-06T16:59:22.354Z,10.81
2023-01-06T17:01:50.282Z,10.78
2023-01-06T17:04:18.129Z,10.82
2023-01-06T17:06:46.448Z,10.76
2023-01-06T17:09:14.293Z,10.79
2023-01-06T17:11:41.740Z,10.72
2023-01-06T17:14:19.168Z,10.85
2023-01-06T17:16:47.569Z,10.91
2023-01-06T17:19:23.288Z,10.93
2023-01-06T17:21:52.940Z,10.88
2023-01-06T17:24:23.672Z,10.85
2023-01-06T17:26:51.483Z,10.93
2023-01-06T17:29:21.089Z,10.93
2023-01-06T17:31:52.902Z,10.97
2023-01-06T17:34:31.907Z,11.03
2023-01-06T17:37:03.451Z,10.78
2023-01-06T17:39:32.640Z,10.66
2023-01-06T17:42:22.639Z,10.64
2023-01-06T17:44:55.336Z,10.79
2023-01-06T17:47:22.670Z,10.69
2023-01-06T17:49:56.833Z,10.73
2023-01-06T17:52:32.429Z,10.70
2023-01-06T17:55:30.146Z,10.75
2023-01-06T17:57:59.087Z,10.67
2023-01-06T18:00:29.688Z,10.72
2023-01-06T18:02:57.556Z,10.78
2023-01-06T18:05:25.899Z,10.85
2023-01-06T18:08:05.737Z,10.77
2023-01-06T18:10:41.856Z,10.87
2023-01-06T18:13:15.050Z,10.66
2023-01-06T18:15:44.037Z,10.43
2023-01-06T18:18:15.327Z,10.56
2023-01-06T18:21:05.199Z,10.77
2023-01-06T18:23:34.384Z,10.79
2023-01-06T18:26:06.425Z,10.82
2023-01-06T18:28:35.958Z,10.75
2023-01-06T18:31:03.703Z,10.98
2023-01-06T18:33:31.324Z,11.02
2023-01-06T18:35:58.734Z,10.90
2023-01-06T18:38:26.944Z,11.05
2023-01-06T18:40:54.788Z,10.77
2023-01-06T18:43:26.338Z,10.69
2023-01-06T18:45:56.766Z,10.91
2023-01-06T18:48:30.604Z,10.86
2023-01-06T18:50:59.230Z,10.82
2023-01-06T18:53:26.663Z,10.78
2023-01-06T18:55:57.881Z,10.81
2023-01-06T18:58:28.318Z,10.64
2023-01-06T19:01:06.068Z,10.49
2023-01-06T19:03:37.900Z,10.56
2023-01-06T19:06:08.441Z,10.37
2023-01-06T19:08:37.592Z,10.19
2023-01-06T19:11:13.569Z,10.29
2023-01-06T19:13:41.213Z,10.08
2023-01-06T19:16:27.500Z,10.39
2023-01-06T19:18:57.806Z,10.60
2023-01-06T19:21:25.652Z,10.54
2023-01-06T19:23:53.386Z,10.32
2023-01-06T19:26:47.209Z,10.40
2023-01-06T19:29:14.812Z,10.30
2023-01-06T19:31:46.006Z,10.47
2023-01-06T19:34:15.866Z,10.48
2023-01-06T19:36:44.126Z,10.52
2023-01-06T19:39:22.421Z,10.60
2023-01-06T19:41:54.052Z,10.84
2023-01-06T19:44:42.358Z,10.87
2023-01-06T19:47:22.898Z,10.74
2023-01-06T19:49:53.379Z,10.71
2023-01-06T19:52:24.390Z,10.64
2023-01-06T19:54:52.915Z,10.64
2023-01-06T19:57:28.773Z,10.69
2023-01-06T20:00:00.480Z,10.62
2023-01-06T20:02:33.879Z,10.57
2023-01-06T20:05:02.677Z,10.70
2023-01-06T20:07:30.104Z,10.69
2023-01-06T20:09:57.478Z,10.67
2023-01-06T20:12:24.898Z,10.61
2023-01-06T20:14:52.403Z,10.57
2023-01-06T20:17:19.807Z,10.62
2023-01-06T20:19:47.256Z,10.63
2023-01-06T20:22:14.790Z,10.50
2023-01-06T20:24:42.054Z,10.52
2023-01-06T20:27:09.406Z,10.60
2023-01-06T20:29:37.211Z,10.59
2023-01-06T20:32:04.717Z,10.65
2023-01-06T20:34:32.900Z,10.68
2023-01-06T20:37:00.843Z,10.64
2023-01-06T20:39:29.701Z,10.57
2023-01-06T20:41:57.619Z,10.66
2023-01-06T20:44:24.964Z,10.61
2023-01-06T20:46:53.041Z,10.54
2023-01-06T20:49:20.594Z,10.58
2023-01-06T20:51:47.966Z,10.60
2023-01-06T20:54:15.455Z,10.66
2023-01-06T20:56:42.827Z,10.60
2023-01-06T20:59:10.984Z,10.50
2023-01-06T21:01:38.926Z,10.53
2023-01-06T21:04:06.924Z,10.41
2023-01-06T21:06:34.339Z,10.47
2023-01-06T21:09:01.834Z,10.57
2023-01-06T21:11:29.589Z,10.64
2023-01-06T21:13:57.312Z,10.55
2023-01-06T21:16:25.017Z,10.53
2023-01-06T21:18:52.502Z,10.56
2023-01-06T21:21:19.916Z,10.60
2023-01-06T21:23:47.839Z,10.63
2023-01-06T21:26:15.198Z,10.64
2023-01-06T21:28:43.055Z,10.70
2023-01-06T21:31:10.503Z,10.66
2023-01-06T21:33:37.856Z,10.56
2023-01-06T21:36:05.541Z,10.60
2023-01-06T21:38:34.716Z,10.42
2023-01-06T21:41:22.521Z,10.40
2023-01-06T21:43:49.979Z,10.24
2023-01-06T21:46:17.610Z,10.24
2023-01-06T21:48:45.779Z,10.30
2023-01-06T21:51:13.476Z,10.20
2023-01-06T21:53:41.166Z,10.22
2023-01-06T21:56:09.303Z,10.16
2023-01-06T21:58:36.877Z,10.17
2023-01-06T22:01:04.655Z,10.31
2023-01-06T22:03:32.073Z,10.26
2023-01-06T22:06:01.729Z,10.28
2023-01-06T22:08:30.028Z,10.30
2023-01-06T22:10:57.622Z,10.37
2023-01-06T22:13:25.833Z,10.35
2023-01-06T22:15:53.458Z,10.48
2023-01-06T22:18:21.144Z,10.51
2023-01-06T22:20:49.134Z,10.39
2023-01-06T22:23:19.223Z,10.51
2023-01-06T22:25:46.780Z,10.57
2023-01-06T22:28:14.615Z,10.49
2023-01-06T22:30:41.959Z,10.52
2023-01-06T22:33:09.519Z,10.76
2023-01-06T22:35:36.999Z,10.80
2023-01-06T22:38:05.348Z,10.81
2023-01-06T22:40:33.079Z,10.76
2023-01-06T22:43:00.436Z,10.79
2023-01-06T22:45:28.232Z,10.85
2023-01-06T22:47:56.048Z,10.76
2023-01-06T22:50:23.797Z,10.68
2023-01-06T22:52:51.137Z,10.57
2023-01-06T22:55:18.558Z,10.58
2023-01-06T22:57:45.976Z,10.55
2023-01-06T23:00:15.994Z,10.66
2023-01-06T23:02:44.813Z,10.57
2023-01-06T23:05:12.534Z,10.58
2023-01-06T23:07:40.863Z,10.65
2023-01-06T23:10:09.621Z,10.66
2023-01-06T23:12:42.729Z,10.74
2023-01-06T23:15:10.537Z,10.79
2023-01-06T23:17:38.814Z,10.78
2023-01-06T23:20:06.977Z,10.56
2023-01-06T23:22:34.463Z,10.50
2023-01-06T23:25:02.329Z,10.64
2023-01-06T23:27:31.463Z,10.62
2023-01-06T23:29:59.553Z,10.69
2023-01-06T23:32:26.972Z,10.80
2023-01-06T23:34:54.375Z,10.54
2023-01-06T23:37:22.834Z,10.56
2023-01-06T23:39:50.187Z,10.47
2023-01-06T23:42:18.177Z,10.56
2023-01-06T23:44:45.690Z,10.42
2023-01-06T23:47:14.091Z,10.44
2023-01-06T23:49:41.456Z,10.45
2023-01-06T23:52:08.809Z,10.36
2023-01-06T23:54:36.629Z,10.42
2023-01-06T23:57:05.016Z,10.42
2023-01-06T23:59:32.421Z,10.43
